createdAt,value
2022-12-18T00:02:01.506Z,79.61
2022-12-18T00:04:30.525Z,80.47
2022-12-18T00:06:58.746Z,80.91
2022-12-18T00:09:31.300Z,80.18
2022-12-18T00:14:44.867Z,81.04
2022-12-18T00:17:12.811Z,79.95
2022-12-18T00:19:40.713Z,82.35
2022-12-18T00:22:08.649Z,84.51
2022-12-18T00:24:36.528Z,82.92
2022-12-18T00:27:04.453Z,82.20
2022-12-18T00:29:32.503Z,82.43
2022-12-18T00:32:00.624Z,82.95
2022-12-18T00:34:28.529Z,83.04
2022-12-18T00:36:56.476Z,83.27
2022-12-18T00:39:24.350Z,85.28
2022-12-18T00:42:10.917Z,87.00
2022-12-18T00:44:38.825Z,85.24
2022-12-18T00:47:06.722Z,84.72
2022-12-18T00:49:35.004Z,83.56
2022-12-18T00:52:02.967Z,84.56
2022-12-18T00:54:30.940Z,85.01
2022-12-18T00:56:58.925Z,85.61
2022-12-18T00:59:26.862Z,86.93
2022-12-18T01:01:54.856Z,87.65
2022-12-18T01:04:22.949Z,84.40
2022-12-18T01:06:50.820Z,83.83
2022-12-18T01:09:18.743Z,84.13
2022-12-18T01:11:46.733Z,85.52
2022-12-18T01:14:14.708Z,83.86
2022-12-18T01:16:42.838Z,83.30
2022-12-18T01:19:11.373Z,83.00
2022-12-18T01:21:39.309Z,81.19
2022-12-18T01:24:07.269Z,82.38
2022-12-18T01:26:35.213Z,81.99
2022-12-18T01:29:03.221Z,82.12
2022-12-18T01:31:33.703Z,82.77
2022-12-18T01:34:05.273Z,84.22
2022-12-18T01:36:36.168Z,84.07
2022-12-18T01:39:11.146Z,85.66
2022-12-18T01:41:58.386Z,85.85
2022-12-18T01:45:03.882Z,87.45
2022-12-18T01:47:52.172Z,87.57
2022-12-18T01:50:28.716Z,87.03
2022-12-18T01:53:18.619Z,84.96
2022-12-18T01:55:53.119Z,85.56
2022-12-18T01:58:31.469Z,86.49
2022-12-18T02:00:59.652Z,85.97
2022-12-18T02:03:27.720Z,86.52
2022-12-18T02:06:06.932Z,86.72
2022-12-18T02:09:04.694Z,85.64
2022-12-18T02:11:44.660Z,85.03
2022-12-18T02:14:15.931Z,87.78
2022-12-18T02:16:46.579Z,86.54
2022-12-18T02:19:42.666Z,85.23
2022-12-18T02:22:44.065Z,86.48
2022-12-18T02:25:58.595Z,86.19
2022-12-18T02:28:39.829Z,89.86
2022-12-18T02:31:14.478Z,87.02
2022-12-18T02:33:46.461Z,88.80
2022-12-18T02:36:17.643Z,88.71
2022-12-18T02:38:48.008Z,102.17
2022-12-18T02:41:18.280Z,102.89
2022-12-18T02:43:50.649Z,90.63
2022-12-18T02:46:28.668Z,87.06
2022-12-18T02:49:17.798Z,85.65
2022-12-18T02:52:06.536Z,83.67
2022-12-18T02:54:57.280Z,84.02
2022-12-18T02:57:45.894Z,82.49
2022-12-18T03:00:20.037Z,82.94
2022-12-18T03:03:11.729Z,80.99
2022-12-18T03:06:01.641Z,74.70
2022-12-18T03:08:35.506Z,67.83
2022-12-18T03:11:10.494Z,63.48
2022-12-18T03:13:49.205Z,61.46
2022-12-18T03:16:24.237Z,62.22
2022-12-18T03:19:00.145Z,60.88
2022-12-18T03:21:37.703Z,59.59
2022-12-18T03:24:09.260Z,57.55
2022-12-18T03:26:43.938Z,58.13
2022-12-18T03:29:25.460Z,56.90
2022-12-18T03:32:01.331Z,50.82
2022-12-18T03:34:35.929Z,42.31
2022-12-18T03:37:08.113Z,43.26
2022-12-18T03:39:38.866Z,39.86
2022-12-18T03:42:30.691Z,35.92
2022-12-18T03:45:23.261Z,35.98
2022-12-18T03:48:04.209Z,35.59
2022-12-18T03:50:52.261Z,35.41
2022-12-18T03:53:34.719Z,36.38
2022-12-18T03:56:05.040Z,37.04
2022-12-18T03:58:40.441Z,39.86
2022-12-18T04:01:21.158Z,40.09
2022-12-18T04:03:51.141Z,38.69
2022-12-18T04:06:22.753Z,38.70
2022-12-18T04:08:51.585Z,38.60
2022-12-18T04:11:23.038Z,40.22
2022-12-18T04:13:51.052Z,40.67
2022-12-18T04:16:23.464Z,40.03
2022-12-18T04:18:55.291Z,39.99
2022-12-18T04:21:25.711Z,39.95
2022-12-18T04:23:54.546Z,41.17
2022-12-18T04:26:24.347Z,41.15
2022-12-18T04:29:05.378Z,42.29
2022-12-18T04:31:33.531Z,42.69
2022-12-18T04:34:01.912Z,42.75
2022-12-18T04:36:30.225Z,42.82
2022-12-18T04:38:58.194Z,42.63
2022-12-18T04:41:26.633Z,42.45
2022-12-18T04:43:55.558Z,41.87
2022-12-18T04:46:23.594Z,41.86
2022-12-18T04:48:51.509Z,41.03
2022-12-18T04:51:24.765Z,40.80
2022-12-18T04:53:54.978Z,41.68
2022-12-18T04:56:23.027Z,41.48
2022-12-18T04:58:50.997Z,39.99
2022-12-18T05:01:19.526Z,39.56
2022-12-18T05:03:47.599Z,39.58
2022-12-18T05:06:15.792Z,39.85
2022-12-18T05:08:44.314Z,39.04
2022-12-18T05:11:17.439Z,38.98
2022-12-18T05:13:47.212Z,37.35
2022-12-18T05:16:15.660Z,36.99
2022-12-18T05:18:43.778Z,34.35
2022-12-18T05:21:11.678Z,35.50
2022-12-18T05:23:40.326Z,33.89
2022-12-18T05:26:08.870Z,32.41
2022-12-18T05:28:37.533Z,31.95
2022-12-18T05:31:06.402Z,31.84
2022-12-18T05:33:36.174Z,32.21
2022-12-18T05:36:07.771Z,32.61
2022-12-18T05:38:37.676Z,33.52
2022-12-18T05:41:05.976Z,34.11
2022-12-18T05:43:36.625Z,34.46
2022-12-18T05:46:06.620Z,34.04
2022-12-18T05:48:34.621Z,33.69
2022-12-18T05:51:11.264Z,32.76
2022-12-18T05:53:39.737Z,33.76
2022-12-18T05:56:11.067Z,32.19
2022-12-18T05:58:39.409Z,33.18
2022-12-18T06:01:16.432Z,32.67
2022-12-18T06:03:45.635Z,32.59
2022-12-18T06:06:14.804Z,32.30
2022-12-18T06:08:46.162Z,32.64
2022-12-18T06:11:19.411Z,32.30
2022-12-18T06:13:47.769Z,32.45
2022-12-18T06:16:15.757Z,33.68
2022-12-18T06:18:43.701Z,34.40
2022-12-18T06:21:11.997Z,34.78
2022-12-18T06:23:40.818Z,34.60
2022-12-18T06:26:15.062Z,33.34
2022-12-18T06:28:43.404Z,32.36
2022-12-18T06:31:12.079Z,32.02
2022-12-18T06:33:41.154Z,31.48
2022-12-18T06:36:11.921Z,28.82
2022-12-18T06:38:42.782Z,28.92
2022-12-18T06:41:13.935Z,27.81
2022-12-18T06:43:42.574Z,26.67
2022-12-18T06:46:11.428Z,26.04
2022-12-18T06:48:39.743Z,23.68
2022-12-18T06:51:07.661Z,20.85
2022-12-18T06:53:35.763Z,20.33
2022-12-18T06:56:10.703Z,20.10
2022-12-18T06:58:39.709Z,19.27
2022-12-18T07:01:10.828Z,19.81
2022-12-18T07:03:41.513Z,20.11
2022-12-18T07:06:19.297Z,20.32
2022-12-18T07:08:48.505Z,20.91
2022-12-18T07:11:17.720Z,20.87
2022-12-18T07:13:46.883Z,21.90
2022-12-18T07:16:24.670Z,21.04
2022-12-18T07:18:55.891Z,21.50
2022-12-18T07:21:25.718Z,20.69
2022-12-18T07:23:53.615Z,21.56
2022-12-18T07:26:22.922Z,21.18
2022-12-18T07:28:51.612Z,21.57
2022-12-18T07:31:22.164Z,21.69
2022-12-18T07:33:51.778Z,21.39
2022-12-18T07:36:20.138Z,21.76
2022-12-18T07:38:49.178Z,21.26
2022-12-18T07:41:17.768Z,21.70
2022-12-18T14:39:32.890Z,36.47
